Heathridge, Texas
Current Conditions -  °F | °C
As of 9:50 AM on Sunday 23 Nov 2014 (Local Time) from KHQZ Reporting Station
Broken Clouds Broken Clouds  
Wind Chill: 59°   Ceiling: 700
Heat Index: 59°   Visibility: 10mi
Dew Point: 57°   Wind: 14mph
Humidity: 94%   Direction: 180°S
Pressure: 29.55"   Gusts: NA
Location:  32.7342°N, 96.451°W
Report Text: KHQZ 231550Z 18012KT 10SM BKN007 15/14 A2955
Loading
Personal Weather Stations






























Interactive Weather Map New forecast layout! Learn more

10-Day Weather Forecast

Advertisements
Track Severe Weather on mobile